Airfield :
LOGIN :

Register | Disclaimer

   EN    FR    IT 

 










Legend :    VFR   Marginal VFR   IFR   Intensive IFR   Very Intensive IFR
Visi :
Ceiling :
>= 8 km
>= 3000ft
5 to 8 km
1000 to 3000 ft
1500m to 5 km
500 to 1000 ft
800 to 1500m
200 to 500 ft
< 800m
< 200 ft
Symbols :   Thunderstorms  Fog  Heavy snow  Heavy precipitations  Wind > 20 kt
SIGMETs :     Misc.  Thunderstorms  Icing  Turbulence  Mountain Waves  Volcanic Ashes






- Airport Elevation : 405 ft
- IATA code : ODH


EGVO - RAF Odiham

CURRENT METAR :
  • 290550Z 24011KT 9999 BKN010 BKN060 13/11 Q1009 RMK GRN

EXPIRED METARs :
  • 290520Z AUTO 24012KT 9999 BKN007/// BKN016/// OVC058/// 13/11 Q1009
  • 290450Z AUTO 23011KT 9999 OVC007/// 13/11 Q1009
  • 290420Z AUTO 24010KT 9999 BKN008/// BKN060/// 13/11 Q1009
  • 290350Z AUTO 23009KT 9999 BKN008/// BKN060/// 13/11 Q1009
  • 290320Z AUTO 24012KT 9999 // OVC007/// 13/11 Q1009
  • 290250Z AUTO 23010KT 9999 // OVC006/// 13/11 Q1009
  • 290220Z AUTO 22010KT 9999 -RADZ FEW023/// BKN049/// 13/11 Q1009
  • 290150Z AUTO 21009KT 9999 OVC058/// 13/11 Q1009
  • 290120Z AUTO 23010KT 9999 OVC051/// 13/11 Q1009
  • 290050Z AUTO 24012KT 9999 BKN009/// OVC052/// 13/11 Q1010

TAF AMD TAF EGVO
Valid from the 28 at 21:00 until the 29 at 09:00 UTC


282052Z 2821/2909 23012KT 9999 OVC007
BECMG 2821/2824 FEW010 BKN025
TEMPO 2821/2823 5000 -RADZ BKN005
PROB30
TEMPO 2821/2822 3000 DZ BKN004
TEMPO 2900/2908 SCT010
PROB30
TEMPO 2902/2906 7000 -SHRA
PROB40
TEMPO 2908/2909 SCT016



MET'MAP, your aeronautical weather chart ! - Copyright ORBIFLY December 2007 - Disclaimer

ORBIFLY MET'MAP TEAM :

Programming & Development : Alexandra Zaïnal
Original concept : Baudouin d'Aumeries
Technical & hardware support : Manuel Goepfert
Assistance : Marc-Olivier Méhu




SOURCES & CREDITS :

   NOAA